Time;durP1;ratioP1;P1;durP2;ratioP2;P2;SDS_P1;SDS_P2;PMS_P1;PMS_P2;Temp;Humidity;BMP_temperature;BMP_pressure;BME280_temperature;BME280_humidity;BME280_pressure;Samples;Min_cycle;Max_cycle;Signal;HPM_P1;HPM_P2
2021/07/21 00:02:18;;;;;;;16.85;7.85;;;24.80;54.40;;;;;;6180217;28;80572;-68
2021/07/21 00:05:18;;;;;;;11.75;7.32;;;24.80;54.30;;;;;;6182931;28;80619;-69
2021/07/21 00:08:19;;;;;;;10.10;6.88;;;24.70;54.60;;;;;;6178263;28;81791;-69
2021/07/21 00:14:39;;;;;;;17.35;8.00;;;24.80;54.70;;;;;;6173921;28;80663;-68
2021/07/21 00:17:40;;;;;;;11.55;6.90;;;24.80;54.50;;;;;;6171705;28;80841;-67
2021/07/21 00:20:40;;;;;;;12.60;6.63;;;24.80;54.50;;;;;;6179951;28;80531;-67
2021/07/21 00:23:41;;;;;;;13.73;7.43;;;24.80;54.50;;;;;;6173021;28;81304;-67
2021/07/21 00:26:41;;;;;;;11.85;7.00;;;24.80;54.50;;;;;;6177260;28;80848;-67
2021/07/21 00:29:42;;;;;;;15.43;7.95;;;24.80;54.40;;;;;;6178762;28;80775;-67
2021/07/21 00:32:42;;;;;;;12.88;7.03;;;24.80;54.30;;;;;;6174228;28;80514;-68
2021/07/21 00:35:44;;;;;;;20.20;8.50;;;24.80;54.30;;;;;;6171536;28;80515;-68
2021/07/21 00:38:44;;;;;;;14.93;7.60;;;24.80;54.40;;;;;;6180635;28;80374;-67
2021/07/21 00:41:48;;;;;;;14.95;7.68;;;24.80;54.50;;;;;;6179580;28;82760;-67
2021/07/21 00:44:48;;;;;;;15.10;7.90;;;24.70;54.40;;;;;;6180334;28;81063;-67
2021/07/21 00:47:49;;;;;;;14.73;7.25;;;24.70;54.20;;;;;;6188183;28;82083;-67
2021/07/21 00:50:49;;;;;;;16.63;8.52;;;24.60;54.00;;;;;;6176763;28;80308;-67
2021/07/21 00:53:51;;;;;;;13.15;7.57;;;24.70;54.10;;;;;;6197336;28;82195;-67
2021/07/21 00:56:56;;;;;;;14.23;7.82;;;24.60;54.30;;;;;;6178849;28;81716;-68
2021/07/21 00:59:57;;;;;;;13.00;7.68;;;24.70;54.00;;;;;;6181987;28;80782;-67
2021/07/21 01:02:58;;;;;;;16.35;7.38;;;24.70;54.00;;;;;;6166593;28;82971;-67
2021/07/21 01:06:00;;;;;;;19.63;7.38;;;24.70;53.90;;;;;;6177247;28;82790;-67
2021/07/21 01:09:02;;;;;;;15.27;7.82;;;24.70;54.00;;;;;;6180277;28;83072;-67
2021/07/21 01:12:18;;;;;;;14.55;7.53;;;24.70;54.00;;;;;;6181946;28;81458;-66
2021/07/21 01:15:19;;;;;;;13.70;7.38;;;24.70;54.00;;;;;;6183102;28;80280;-66
2021/07/21 01:18:19;;;;;;;18.88;8.38;;;24.70;54.10;;;;;;6176390;28;80451;-66
2021/07/21 01:21:20;;;;;;;18.83;8.45;;;24.60;53.90;;;;;;6180947;28;83251;-67
2021/07/21 01:24:21;;;;;;;13.50;7.40;;;24.60;54.00;;;;;;6173333;28;83422;-67
2021/07/21 01:27:22;;;;;;;10.95;6.55;;;24.70;54.00;;;;;;6170949;28;82804;-67
2021/07/21 01:30:23;;;;;;;16.42;7.60;;;24.70;54.00;;;;;;6176634;28;82499;-67
2021/07/21 01:33:28;;;;;;;15.38;8.02;;;24.70;54.00;;;;;;6177088;28;80963;-67
2021/07/21 01:36:29;;;;;;;13.48;7.35;;;24.60;53.70;;;;;;6183502;28;81205;-67
2021/07/21 01:39:31;;;;;;;15.88;7.72;;;24.60;53.60;;;;;;6180119;28;83019;-67
2021/07/21 01:42:31;;;;;;;18.40;7.95;;;24.60;53.70;;;;;;6180334;28;82979;-66
2021/07/21 01:45:32;;;;;;;16.10;7.40;;;24.60;53.80;;;;;;6178490;28;81801;-66
2021/07/21 01:48:32;;;;;;;15.57;7.25;;;24.60;53.50;;;;;;6182910;28;80875;-67
2021/07/21 01:51:34;;;;;;;13.43;7.57;;;24.60;53.80;;;;;;6182841;28;83088;-67
2021/07/21 01:54:38;;;;;;;20.10;8.30;;;24.50;53.50;;;;;;6174754;28;82978;-67
2021/07/21 01:57:45;;;;;;;17.55;7.20;;;24.60;53.70;;;;;;6177722;28;85439;-67
2021/07/21 02:01:14;;;;;;;16.90;7.13;;;24.50;53.70;;;;;;6182536;28;81175;-67
2021/07/21 02:04:16;;;;;;;12.93;7.18;;;24.50;53.40;;;;;;6180104;28;82993;-68
2021/07/21 02:07:17;;;;;;;17.52;8.00;;;24.60;53.60;;;;;;6180704;28;81985;-68
2021/07/21 02:10:18;;;;;;;10.15;6.43;;;24.50;53.40;;;;;;6176820;28;81698;-68
2021/07/21 02:13:28;;;;;;;11.80;7.53;;;24.50;53.30;;;;;;6177735;28;81831;-68
2021/07/21 02:16:46;;;;;;;13.85;6.97;;;24.50;53.50;;;;;;6175068;28;83378;-67
2021/07/21 02:19:53;;;;;;;13.73;6.78;;;24.50;53.20;;;;;;6180819;28;87747;-68
2021/07/21 02:23:04;;;;;;;15.55;7.03;;;24.50;53.30;;;;;;6198382;28;81649;-67
2021/07/21 02:26:20;;;;;;;17.10;7.65;;;24.50;53.20;;;;;;6181684;28;80375;-67
2021/07/21 02:29:22;;;;;;;17.27;7.93;;;24.50;52.90;;;;;;6171879;28;82285;-67
2021/07/21 02:32:33;;;;;;;13.63;8.02;;;24.50;52.90;;;;;;6181150;28;80467;-68
2021/07/21 02:35:34;;;;;;;16.40;6.70;;;24.50;53.00;;;;;;6179898;28;82329;-67
2021/07/21 02:38:35;;;;;;;18.48;6.93;;;24.50;53.00;;;;;;6180749;28;83364;-67
2021/07/21 02:41:36;;;;;;;16.10;7.05;;;24.50;52.90;;;;;;6179725;28;80416;-67
2021/07/21 02:44:36;;;;;;;10.82;6.75;;;24.50;52.80;;;;;;6192005;28;82886;-67
2021/07/21 02:47:38;;;;;;;11.98;7.22;;;24.50;53.00;;;;;;6181831;28;83508;-67
2021/07/21 02:50:38;;;;;;;13.73;6.85;;;24.50;52.90;;;;;;6183307;28;80612;-67
2021/07/21 02:53:39;;;;;;;14.82;6.75;;;24.50;52.70;;;;;;6178649;28;83308;-68
2021/07/21 02:56:58;;;;;;;21.83;7.50;;;24.50;53.00;;;;;;6179824;28;80668;-68
2021/07/21 02:59:59;;;;;;;11.65;7.35;;;24.50;53.00;;;;;;6176642;28;82119;-68
2021/07/21 03:03:00;;;;;;;12.68;6.93;;;24.40;52.90;;;;;;6178749;28;81368;-67
2021/07/21 03:06:01;;;;;;;17.08;6.45;;;24.40;52.80;;;;;;6178157;28;82557;-67
2021/07/21 03:09:13;;;;;;;12.32;6.47;;;24.40;53.00;;;;;;6177337;28;83343;-67
2021/07/21 03:12:22;;;;;;;10.57;6.78;;;24.50;52.90;;;;;;6178262;28;81579;-67
2021/07/21 03:15:43;;;;;;;10.27;6.43;;;24.50;52.90;;;;;;6171589;28;81220;-67
2021/07/21 03:18:47;;;;;;;14.20;6.68;;;24.50;52.80;;;;;;6180599;28;83321;-66
2021/07/21 03:21:50;;;;;;;12.88;6.80;;;24.50;52.90;;;;;;6174362;28;81212;-66
2021/07/21 03:24:51;;;;;;;10.52;6.43;;;24.50;53.10;;;;;;6179635;28;80660;-66
2021/07/21 03:27:53;;;;;;;9.20;6.07;;;24.50;52.80;;;;;;6174147;28;83546;-67
2021/07/21 03:31:03;;;;;;;15.15;7.10;;;24.50;52.70;;;;;;6177642;28;80559;-68
2021/07/21 03:34:08;;;;;;;14.00;5.47;;;24.50;52.50;;;;;;6171043;28;81458;-69
2021/07/21 03:37:16;;;;;;;12.60;6.20;;;24.50;52.60;;;;;;6181513;28;83344;-67
2021/07/21 03:40:36;;;;;;;12.70;5.70;;;24.50;52.50;;;;;;6175985;28;80376;-67
2021/07/21 03:43:55;;;;;;;10.10;5.40;;;24.50;52.80;;;;;;6186408;28;84644;-68
2021/07/21 03:46:57;;;;;;;12.38;5.70;;;24.50;52.50;;;;;;6173467;28;80546;-69
2021/07/21 03:49:58;;;;;;;15.02;6.30;;;24.50;52.60;;;;;;6185375;28;82704;-70
2021/07/21 03:53:02;;;;;;;13.43;5.82;;;24.50;52.70;;;;;;6177239;28;83037;-68
2021/07/21 03:56:03;;;;;;;12.30;5.70;;;24.50;52.80;;;;;;6180903;28;80794;-70
2021/07/21 03:59:19;;;;;;;8.93;5.80;;;24.50;52.50;;;;;;6168605;28;81524;-68
2021/07/21 04:02:21;;;;;;;10.10;5.00;;;24.50;52.70;;;;;;6178365;28;81582;-69
2021/07/21 04:05:22;;;;;;;12.88;5.93;;;24.50;52.60;;;;;;6179471;28;83549;-68
2021/07/21 04:08:27;;;;;;;9.38;5.38;;;24.40;52.30;;;;;;6168632;28;81875;-68
2021/07/21 04:11:28;;;;;;;11.27;5.63;;;24.50;52.70;;;;;;6175920;28;82956;-68
2021/07/21 04:14:29;;;;;;;12.68;4.85;;;24.60;52.70;;;;;;6180280;28;81017;-69
2021/07/21 04:17:58;;;;;;;8.77;4.18;;;24.70;53.00;;;;;;6170865;28;80682;-68
2021/07/21 04:21:01;;;;;;;7.93;4.72;;;24.80;53.40;;;;;;6184301;28;83474;-68
2021/07/21 04:24:02;;;;;;;16.55;4.40;;;24.90;53.00;;;;;;6182644;28;82307;-69
2021/07/21 04:27:02;;;;;;;7.82;4.85;;;24.90;53.10;;;;;;6187950;28;83472;-68
2021/07/21 04:30:04;;;;;;;18.02;5.75;;;25.00;53.50;;;;;;6179371;28;81236;-68
2021/07/21 04:33:06;;;;;;;7.75;4.80;;;25.00;54.20;;;;;;6184701;28;82399;-68
2021/07/21 04:36:07;;;;;;;12.02;5.55;;;25.00;54.20;;;;;;6176730;28;80303;-68
2021/07/21 04:39:11;;;;;;;7.32;5.00;;;25.10;54.00;;;;;;6184744;28;83061;-67
2021/07/21 04:42:41;;;;;;;10.32;4.75;;;25.10;54.00;;;;;;6180040;28;81283;-67
2021/07/21 04:45:43;;;;;;;9.20;4.97;;;25.10;54.10;;;;;;6181360;28;80528;-67
2021/07/21 04:48:44;;;;;;;12.10;5.28;;;25.20;54.30;;;;;;6181366;28;82814;-68
2021/07/21 04:51:57;;;;;;;9.02;4.78;;;25.20;54.20;;;;;;6188770;28;80857;-67
2021/07/21 04:55:01;;;;;;;8.45;5.10;;;25.30;54.40;;;;;;6170831;28;82955;-67
2021/07/21 04:58:02;;;;;;;7.85;5.00;;;25.30;54.80;;;;;;6173578;28;80250;-68
2021/07/21 05:01:11;;;;;;;9.68;5.03;;;25.30;54.40;;;;;;6183494;28;80770;-67
2021/07/21 05:04:11;;;;;;;10.13;4.90;;;25.30;54.30;;;;;;6172931;28;83136;-68
2021/07/21 05:07:20;;;;;;;9.27;4.88;;;25.40;54.50;;;;;;6173990;28;81212;-69
2021/07/21 05:10:24;;;;;;;9.98;5.03;;;25.30;54.30;;;;;;6190855;28;82951;-67
2021/07/21 05:13:25;;;;;;;10.05;4.85;;;25.40;54.50;;;;;;6180537;28;81574;-68
2021/07/21 05:16:26;;;;;;;9.88;4.38;;;25.40;54.20;;;;;;6188390;28;81496;-68
2021/07/21 05:19:27;;;;;;;10.85;5.25;;;25.40;54.30;;;;;;6177500;28;83096;-69
2021/07/21 05:22:27;;;;;;;9.45;4.47;;;25.50;54.20;;;;;;6172539;28;81453;-69
2021/07/21 05:25:29;;;;;;;8.10;4.65;;;25.50;54.30;;;;;;6176485;28;83209;-71
2021/07/21 05:28:48;;;;;;;9.40;5.32;;;25.50;54.20;;;;;;6177904;28;81700;-70
2021/07/21 05:32:07;;;;;;;10.70;5.18;;;25.50;54.00;;;;;;6173426;28;84700;-69
2021/07/21 05:35:08;;;;;;;13.18;5.40;;;25.50;54.00;;;;;;6178662;28;82628;-68
2021/07/21 05:38:29;;;;;;;7.80;4.57;;;25.50;54.00;;;;;;6178199;28;83102;-67
2021/07/21 05:41:29;;;;;;;8.30;5.07;;;25.50;54.00;;;;;;6175014;28;80516;-69
2021/07/21 05:44:30;;;;;;;9.43;5.20;;;25.50;54.50;;;;;;6181910;28;83131;-69
2021/07/21 05:47:32;;;;;;;10.73;4.93;;;25.50;54.50;;;;;;6181043;28;83024;-70
2021/07/21 05:50:33;;;;;;;8.68;4.25;;;25.50;54.70;;;;;;6175917;28;82932;-71
2021/07/21 05:53:34;;;;;;;9.80;5.00;;;25.60;54.60;;;;;;6177332;28;83258;-69
2021/07/21 05:56:36;;;;;;;7.55;4.78;;;25.60;54.50;;;;;;6178153;28;81633;-69
2021/07/21 05:59:36;;;;;;;7.85;4.70;;;25.60;54.30;;;;;;6169107;28;82317;-70
2021/07/21 06:02:38;;;;;;;11.65;4.75;;;25.60;54.30;;;;;;6193520;28;84529;-68
2021/07/21 06:05:38;;;;;;;6.32;4.55;;;25.70;54.20;;;;;;6167663;28;82648;-68
2021/07/21 06:09:02;;;;;;;13.65;5.57;;;25.60;53.80;;;;;;6177647;28;81364;-68
2021/07/21 06:12:12;;;;;;;10.32;4.80;;;25.70;53.70;;;;;;6181552;28;82908;-71
2021/07/21 06:15:12;;;;;;;9.90;4.97;;;25.70;53.80;;;;;;6183440;28;80322;-70
2021/07/21 06:18:13;;;;;;;12.98;4.63;;;25.60;54.50;;;;;;6181333;28;80644;-68
2021/07/21 06:21:23;;;;;;;13.85;5.20;;;25.60;54.10;;;;;;6177923;28;80714;-68
2021/07/21 06:24:42;;;;;;;10.95;5.35;;;25.60;54.30;;;;;;6180859;28;82223;-68
2021/07/21 06:27:54;;;;;;;14.10;5.70;;;25.60;54.10;;;;;;6179283;28;82373;-70
2021/07/21 06:30:55;;;;;;;8.40;4.82;;;25.60;53.90;;;;;;6179314;28;88109;-68
2021/07/21 06:33:58;;;;;;;10.00;5.10;;;25.60;54.20;;;;;;6186929;28;81621;-68
2021/07/21 06:37:00;;;;;;;14.80;5.07;;;25.60;53.90;;;;;;6182192;28;82922;-66
2021/07/21 06:40:01;;;;;;;14.32;5.28;;;25.60;53.90;;;;;;6179195;28;83167;-65
2021/07/21 06:43:04;;;;;;;10.40;5.50;;;25.60;54.60;;;;;;6170254;28;82740;-65
2021/07/21 06:46:12;;;;;;;9.15;5.40;;;25.60;54.00;;;;;;6188886;28;81591;-69
2021/07/21 06:49:13;;;;;;;11.23;5.10;;;25.60;54.00;;;;;;6175345;28;81667;-66
2021/07/21 06:52:15;;;;;;;13.60;5.03;;;25.60;54.30;;;;;;6194193;28;83216;-67
2021/07/21 06:55:16;;;;;;;8.43;5.38;;;25.60;53.90;;;;;;6184811;28;80790;-67
2021/07/21 06:58:19;;;;;;;9.18;4.90;;;25.60;54.30;;;;;;6175881;28;80371;-66
2021/07/21 07:01:26;;;;;;;12.75;5.15;;;25.70;53.60;;;;;;6193005;28;82896;-67
2021/07/21 07:04:56;;;;;;;9.43;5.38;;;25.70;54.30;;;;;;6182166;28;85787;-67
2021/07/21 07:08:15;;;;;;;13.25;5.90;;;25.70;54.30;;;;;;6174762;28;81843;-69
2021/07/21 07:11:34;;;;;;;11.30;5.57;;;25.70;54.00;;;;;;6187188;28;80314;-66
2021/07/21 07:14:34;;;;;;;8.63;4.35;;;25.70;53.60;;;;;;6175913;28;81062;-67
2021/07/21 07:17:35;;;;;;;11.30;4.95;;;25.70;53.70;;;;;;6173616;28;83144;-66
2021/07/21 07:20:35;;;;;;;9.40;5.18;;;25.70;54.00;;;;;;6173233;28;81103;-68
2021/07/21 07:23:36;;;;;;;11.20;5.03;;;25.70;53.80;;;;;;6176741;28;80449;-69
2021/07/21 07:26:36;;;;;;;12.38;5.03;;;25.70;54.30;;;;;;6177811;28;82857;-69
2021/07/21 07:29:37;;;;;;;9.93;4.40;;;25.70;54.10;;;;;;6189775;28;83539;-69
2021/07/21 07:32:37;;;;;;;17.00;4.80;;;25.70;54.10;;;;;;6183986;28;80916;-69
2021/07/21 07:35:40;;;;;;;11.07;5.28;;;25.70;54.20;;;;;;6191558;28;80330;-69
2021/07/21 07:38:40;;;;;;;8.68;4.72;;;25.70;53.70;;;;;;6170189;28;81426;-70
2021/07/21 07:41:41;;;;;;;10.65;5.05;;;25.80;54.10;;;;;;6183385;28;80187;-70
2021/07/21 07:44:41;;;;;;;14.10;4.82;;;25.80;54.10;;;;;;6172421;28;80351;-72
2021/07/21 07:47:42;;;;;;;10.43;4.70;;;25.80;53.80;;;;;;6183225;28;80946;-72
2021/07/21 07:50:42;;;;;;;8.15;4.93;;;25.80;53.70;;;;;;6180117;28;81483;-67
2021/07/21 07:53:43;;;;;;;9.23;5.00;;;25.80;53.80;;;;;;6171873;28;81411;-70
2021/07/21 07:56:43;;;;;;;7.07;4.78;;;25.80;53.80;;;;;;6191136;28;83046;-70
2021/07/21 07:59:44;;;;;;;8.48;4.32;;;25.80;53.90;;;;;;6170356;28;81509;-69
2021/07/21 08:02:44;;;;;;;10.48;5.90;;;25.80;53.60;;;;;;6178176;28;81818;-68
2021/07/21 08:05:45;;;;;;;8.30;5.70;;;25.80;54.10;;;;;;6179798;28;80941;-68
2021/07/21 08:08:45;;;;;;;8.45;5.18;;;25.80;53.30;;;;;;6177796;28;80497;-68
2021/07/21 08:11:48;;;;;;;10.18;5.15;;;25.80;53.40;;;;;;6175879;28;80511;-69
2021/07/21 08:14:48;;;;;;;9.82;5.75;;;25.80;53.30;;;;;;6181516;28;81051;-71
2021/07/21 08:17:49;;;;;;;7.05;4.93;;;25.80;53.50;;;;;;6181210;28;80317;-71
2021/07/21 08:20:49;;;;;;;8.18;4.85;;;25.80;53.40;;;;;;6172791;28;81567;-71
2021/07/21 08:23:50;;;;;;;25.10;5.25;;;25.80;53.10;;;;;;6170071;28;80212;-70
2021/07/21 08:26:50;;;;;;;7.38;4.93;;;25.80;53.10;;;;;;6174316;28;80354;-70
2021/07/21 08:29:50;;;;;;;10.63;4.93;;;25.80;53.10;;;;;;6173775;28;80362;-69
2021/07/21 08:32:51;;;;;;;9.43;5.05;;;25.80;53.00;;;;;;6172558;28;80761;-71
2021/07/21 08:35:51;;;;;;;11.23;5.30;;;25.90;53.10;;;;;;6170571;28;81702;-69
2021/07/21 08:38:52;;;;;;;7.45;5.03;;;25.90;53.00;;;;;;6169957;28;80919;-71
2021/07/21 08:41:52;;;;;;;8.95;5.30;;;25.90;53.00;;;;;;6171668;28;81155;-70
2021/07/21 08:44:53;;;;;;;7.97;5.10;;;25.90;53.00;;;;;;6173644;28;80499;-70
2021/07/21 08:47:53;;;;;;;8.45;5.28;;;25.90;53.10;;;;;;6176668;28;80687;-70
2021/07/21 08:50:54;;;;;;;10.77;5.30;;;25.80;52.90;;;;;;6181952;28;80819;-71
2021/07/21 08:53:54;;;;;;;8.52;5.30;;;25.80;53.70;;;;;;6180051;28;82545;-69
2021/07/21 08:56:57;;;;;;;11.70;4.90;;;25.80;53.00;;;;;;6183071;28;82442;-69
2021/07/21 08:59:58;;;;;;;9.50;5.35;;;25.80;53.10;;;;;;6180298;28;80888;-70
2021/07/21 09:02:58;;;;;;;9.00;4.85;;;25.90;53.00;;;;;;6176710;28;80641;-70
2021/07/21 09:05:59;;;;;;;10.00;5.53;;;25.90;53.10;;;;;;6178419;28;80586;-69
2021/07/21 09:08:59;;;;;;;11.15;5.00;;;25.90;53.10;;;;;;6183160;28;80562;-70
2021/07/21 09:12:00;;;;;;;7.38;4.80;;;25.90;53.00;;;;;;6183813;28;82675;-70
2021/07/21 09:15:00;;;;;;;10.30;4.80;;;25.90;53.20;;;;;;6185305;28;80773;-69
2021/07/21 09:18:01;;;;;;;9.73;5.07;;;25.90;53.10;;;;;;6177797;28;81102;-70
2021/07/21 09:21:02;;;;;;;9.82;5.20;;;25.90;53.20;;;;;;6178199;28;83187;-70
2021/07/21 09:24:02;;;;;;;9.95;4.72;;;25.90;53.00;;;;;;6185379;28;80851;-69
2021/07/21 09:27:03;;;;;;;11.05;5.22;;;25.90;53.10;;;;;;6171736;28;81181;-72
2021/07/21 09:30:03;;;;;;;9.82;4.60;;;25.90;53.10;;;;;;6178157;28;81467;-69
2021/07/21 09:33:04;;;;;;;7.80;4.63;;;25.90;53.30;;;;;;6184799;28;80788;-69
2021/07/21 09:36:04;;;;;;;11.88;5.72;;;25.90;53.10;;;;;;6176404;28;80405;-69
2021/07/21 09:39:06;;;;;;;10.00;5.32;;;25.90;53.00;;;;;;6176329;28;81235;-69
2021/07/21 09:42:07;;;;;;;12.35;5.60;;;25.90;53.30;;;;;;6180949;28;82936;-69
2021/07/21 09:45:07;;;;;;;8.25;5.72;;;25.90;53.40;;;;;;6181468;28;80320;-69
2021/07/21 09:48:08;;;;;;;9.02;5.60;;;25.90;53.80;;;;;;6180497;28;80766;-69
2021/07/21 09:51:08;;;;;;;11.55;4.75;;;25.90;53.80;;;;;;6175441;28;81186;-69
2021/07/21 09:54:08;;;;;;;7.82;4.60;;;25.90;53.50;;;;;;6186111;28;80815;-69
2021/07/21 09:57:09;;;;;;;6.95;4.78;;;25.90;53.50;;;;;;6176929;28;81618;-69
2021/07/21 10:00:09;;;;;;;37.53;10.35;;;25.90;53.80;;;;;;6174528;28;80648;-70
2021/07/21 10:03:13;;;;;;;47.60;12.90;;;26.00;56.40;;;;;;6173182;28;83143;-68
2021/07/21 10:06:13;;;;;;;41.20;11.65;;;26.00;57.70;;;;;;6180385;28;84579;-70
2021/07/21 10:09:14;;;;;;;49.25;13.10;;;25.90;56.80;;;;;;6168793;28;84335;-69
2021/07/21 10:12:14;;;;;;;34.80;10.27;;;26.00;56.50;;;;;;6173548;28;83339;-69
2021/07/21 10:15:15;;;;;;;45.28;12.88;;;25.90;56.90;;;;;;6169914;28;85857;-69
2021/07/21 10:18:15;;;;;;;44.03;11.70;;;25.90;57.70;;;;;;6174495;28;83421;-69
2021/07/21 10:21:16;;;;;;;40.25;12.02;;;26.00;57.30;;;;;;6179345;28;83479;-67
2021/07/21 10:24:16;;;;;;;40.13;11.35;;;26.00;57.10;;;;;;6182683;28;83121;-68
2021/07/21 10:27:17;;;;;;;35.90;12.45;;;26.00;57.10;;;;;;6177470;28;83943;-67
2021/07/21 10:30:17;;;;;;;33.83;11.35;;;26.00;57.20;;;;;;6177171;28;83212;-69
2021/07/21 10:33:18;;;;;;;28.23;10.85;;;26.10;57.50;;;;;;6168868;28;82939;-70
2021/07/21 10:36:19;;;;;;;33.85;9.80;;;26.10;57.40;;;;;;6177582;28;85135;-68
2021/07/21 10:39:19;;;;;;;39.25;10.05;;;26.10;57.00;;;;;;6169109;28;83328;-69
2021/07/21 10:42:20;;;;;;;32.92;9.77;;;26.00;57.10;;;;;;6164681;28;85617;-68
2021/07/21 10:45:21;;;;;;;27.20;9.77;;;26.10;57.60;;;;;;6182002;28;82925;-67
2021/07/21 10:48:33;;;;;;;26.92;9.98;;;26.10;57.00;;;;;;6175183;28;81261;-71
2021/07/21 10:52:10;;;;;;;27.13;9.23;;;26.10;56.80;;;;;;6171273;28;83207;-67
2021/07/21 11:01:29;;;;;;;27.05;9.25;;;26.10;56.50;;;;;;6175144;28;81413;-65
2021/07/21 11:04:30;;;;;;;26.00;8.23;;;26.10;56.40;;;;;;6178081;28;83748;-66
2021/07/21 11:07:30;;;;;;;28.02;8.95;;;26.10;56.40;;;;;;6183762;28;80487;-65
2021/07/21 11:10:31;;;;;;;33.50;9.13;;;26.10;56.20;;;;;;6181893;28;80847;-66
2021/07/21 11:13:31;;;;;;;19.60;7.78;;;26.10;56.10;;;;;;6169908;28;80488;-64
2021/07/21 11:16:32;;;;;;;20.92;7.28;;;26.10;56.20;;;;;;6171283;28;80455;-65
2021/07/21 11:19:33;;;;;;;20.88;7.80;;;26.10;55.80;;;;;;6176317;28;81800;-65
2021/07/21 11:22:33;;;;;;;22.70;8.07;;;26.10;55.90;;;;;;6175565;28;81372;-66
2021/07/21 11:25:34;;;;;;;22.27;8.40;;;26.00;55.90;;;;;;6176731;28;80502;-64
2021/07/21 11:28:34;;;;;;;20.05;6.85;;;26.10;56.50;;;;;;6173221;28;81573;-66
2021/07/21 11:31:35;;;;;;;18.52;8.13;;;26.10;55.90;;;;;;6171423;28;81054;-65
2021/07/21 11:34:35;;;;;;;15.57;6.15;;;26.10;55.90;;;;;;6174527;28;81127;-65
2021/07/21 11:37:35;;;;;;;16.50;6.40;;;26.10;55.60;;;;;;6165872;28;81231;-66
2021/07/21 11:40:36;;;;;;;14.70;6.72;;;26.10;55.50;;;;;;6178507;28;80328;-65
2021/07/21 11:43:36;;;;;;;19.45;6.53;;;26.20;55.40;;;;;;6172203;28;80766;-66
2021/07/21 11:46:37;;;;;;;14.68;6.75;;;26.20;55.00;;;;;;6175731;28;81607;-66
2021/07/21 11:49:37;;;;;;;17.40;7.07;;;26.20;54.70;;;;;;6175892;28;80804;-65
2021/07/21 11:52:38;;;;;;;14.52;6.43;;;26.20;54.70;;;;;;6173590;28;80538;-65
2021/07/21 11:55:40;;;;;;;15.40;6.30;;;26.20;54.50;;;;;;6172980;28;80396;-65
2021/07/21 11:58:41;;;;;;;14.98;6.55;;;26.20;54.50;;;;;;6173318;28;80296;-65
2021/07/21 12:01:41;;;;;;;11.45;5.38;;;26.20;54.40;;;;;;6188798;28;82091;-65
2021/07/21 12:04:42;;;;;;;15.60;5.90;;;26.20;54.20;;;;;;6179763;28;80757;-65
2021/07/21 12:07:46;;;;;;;19.95;6.82;;;26.20;54.00;;;;;;6180037;28;81072;-65
2021/07/21 12:10:47;;;;;;;9.18;5.25;;;26.20;53.30;;;;;;6176920;28;80169;-65
2021/07/21 12:13:48;;;;;;;9.48;5.20;;;26.20;53.20;;;;;;6173123;28;80611;-66
2021/07/21 12:16:48;;;;;;;14.48;5.07;;;26.20;53.00;;;;;;6179248;28;81433;-65
2021/07/21 12:19:49;;;;;;;7.93;4.68;;;26.20;52.70;;;;;;6171114;28;80625;-66
2021/07/21 12:22:49;;;;;;;13.10;5.13;;;26.20;52.80;;;;;;6178115;28;81649;-67
2021/07/21 12:25:50;;;;;;;8.43;5.07;;;26.20;52.80;;;;;;6176308;28;80737;-66
2021/07/21 12:28:50;;;;;;;9.40;4.90;;;26.20;53.00;;;;;;6180341;28;86872;-65
2021/07/21 12:31:51;;;;;;;8.90;5.03;;;26.20;52.80;;;;;;6165067;28;80703;-66
2021/07/21 12:34:55;;;;;;;10.73;5.32;;;26.20;53.20;;;;;;6174349;28;80319;-66
2021/07/21 12:37:55;;;;;;;10.40;5.03;;;26.20;53.50;;;;;;6177499;28;81737;-66
2021/07/21 12:40:56;;;;;;;8.95;4.93;;;26.20;53.30;;;;;;6184180;28;80524;-66
2021/07/21 12:43:56;;;;;;;7.03;4.85;;;26.20;53.40;;;;;;6174605;28;80315;-66
2021/07/21 12:46:57;;;;;;;14.38;5.30;;;26.20;53.40;;;;;;6176373;28;80761;-69
2021/07/21 12:49:57;;;;;;;9.20;4.95;;;26.20;53.50;;;;;;6184295;28;80279;-68
2021/07/21 12:52:57;;;;;;;10.63;5.15;;;26.20;53.60;;;;;;6182368;28;80298;-71
2021/07/21 12:55:58;;;;;;;15.93;5.47;;;26.20;53.90;;;;;;6173453;28;82594;-69
2021/07/21 12:58:59;;;;;;;9.52;4.78;;;26.20;54.10;;;;;;6171946;28;83020;-68
2021/07/21 13:01:59;;;;;;;9.75;4.70;;;26.20;54.00;;;;;;6184297;28;80638;-69
2021/07/21 13:05:00;;;;;;;11.57;5.13;;;26.20;54.20;;;;;;6179183;28;81277;-69
2021/07/21 13:08:01;;;;;;;10.00;5.30;;;26.20;54.20;;;;;;6183372;28;80321;-68
2021/07/21 13:11:01;;;;;;;8.38;4.72;;;26.20;54.10;;;;;;6180587;28;80872;-69
2021/07/21 13:14:02;;;;;;;9.48;4.68;;;26.20;54.80;;;;;;6177411;28;80313;-70
2021/07/21 13:17:03;;;;;;;7.25;4.78;;;26.20;54.60;;;;;;6178118;28;80501;-68
2021/07/21 13:20:03;;;;;;;8.70;4.72;;;26.30;54.60;;;;;;6177432;28;81012;-69
2021/07/21 13:23:04;;;;;;;10.25;4.85;;;26.30;54.40;;;;;;6182310;28;82312;-70
2021/07/21 13:26:04;;;;;;;8.45;4.80;;;26.20;54.30;;;;;;6181702;28;80893;-70
2021/07/21 13:29:05;;;;;;;9.98;5.03;;;26.20;54.40;;;;;;6183229;28;80707;-69
2021/07/21 13:32:05;;;;;;;8.73;4.75;;;26.30;54.60;;;;;;6183816;28;80556;-68
2021/07/21 13:35:06;;;;;;;7.28;4.68;;;26.30;54.50;;;;;;6180562;28;80492;-70
2021/07/21 13:38:06;;;;;;;9.02;5.03;;;26.30;54.30;;;;;;6178628;28;83072;-68
2021/07/21 13:41:07;;;;;;;7.93;4.60;;;26.40;54.20;;;;;;6176287;28;82918;-68
2021/07/21 13:44:07;;;;;;;7.35;4.80;;;26.40;53.90;;;;;;6173054;28;80417;-69
2021/07/21 13:47:08;;;;;;;8.80;4.45;;;26.40;53.50;;;;;;6180664;28;80395;-70
2021/07/21 13:50:09;;;;;;;8.43;4.82;;;26.40;53.30;;;;;;6179082;28;80874;-68
2021/07/21 13:53:09;;;;;;;7.53;4.50;;;26.30;52.80;;;;;;6176657;28;81033;-71
2021/07/21 13:56:09;;;;;;;8.80;5.25;;;26.40;53.60;;;;;;6189157;28;80957;-69
2021/07/21 13:59:10;;;;;;;8.20;4.80;;;26.40;53.20;;;;;;6176974;28;80757;-70
2021/07/21 14:02:10;;;;;;;14.18;5.05;;;26.40;53.30;;;;;;6184823;28;80517;-69
2021/07/21 14:05:11;;;;;;;7.28;4.97;;;26.30;53.30;;;;;;6188400;28;80828;-68
2021/07/21 14:08:11;;;;;;;16.63;4.15;;;26.40;52.80;;;;;;6188685;28;82912;-68
2021/07/21 14:11:12;;;;;;;7.30;5.15;;;26.40;52.70;;;;;;6182767;28;81118;-70
2021/07/21 14:14:12;;;;;;;6.50;4.93;;;26.40;52.60;;;;;;6179162;28;80346;-70
2021/07/21 14:17:13;;;;;;;9.65;4.60;;;26.40;52.50;;;;;;6179805;28;80613;-69
2021/07/21 14:20:13;;;;;;;11.25;4.50;;;26.40;52.80;;;;;;6181555;28;80781;-68
2021/07/21 14:23:14;;;;;;;5.85;4.32;;;26.40;52.60;;;;;;6192016;28;80361;-70
2021/07/21 14:26:14;;;;;;;5.90;4.35;;;26.40;52.80;;;;;;6182618;28;80481;-69
2021/07/21 14:29:15;;;;;;;7.60;4.53;;;26.40;53.10;;;;;;6189999;28;80674;-70
2021/07/21 14:32:15;;;;;;;10.85;4.95;;;26.30;52.80;;;;;;6184019;28;81633;-69
2021/07/21 14:35:16;;;;;;;13.07;4.75;;;26.30;53.80;;;;;;6174201;28;81385;-72
2021/07/21 14:38:16;;;;;;;8.82;4.70;;;26.30;53.30;;;;;;6181935;28;80822;-70
2021/07/21 14:41:17;;;;;;;12.65;4.63;;;26.40;53.60;;;;;;6179539;28;82337;-70
2021/07/21 14:44:17;;;;;;;8.18;4.75;;;26.40;52.90;;;;;;6181375;28;80633;-70
2021/07/21 14:47:23;;;;;;;9.35;4.95;;;26.40;53.10;;;;;;6170699;28;81407;-69
2021/07/21 14:50:23;;;;;;;9.57;4.60;;;26.40;52.90;;;;;;6167845;28;80908;-68
2021/07/21 14:53:24;;;;;;;6.32;4.40;;;26.40;53.50;;;;;;6170008;28;80326;-69
2021/07/21 14:56:24;;;;;;;7.57;4.47;;;26.40;53.60;;;;;;6164187;28;80577;-68
2021/07/21 14:59:25;;;;;;;8.63;4.55;;;26.40;53.40;;;;;;6168524;28;80742;-69
2021/07/21 15:02:25;;;;;;;13.95;5.20;;;26.40;53.80;;;;;;6165992;28;81496;-69
2021/07/21 15:05:26;;;;;;;7.85;4.50;;;26.40;53.40;;;;;;6181853;28;80445;-70
2021/07/21 15:08:26;;;;;;;13.73;4.82;;;26.40;53.90;;;;;;6180957;28;81011;-72
2021/07/21 15:11:27;;;;;;;7.28;4.63;;;26.30;53.90;;;;;;6165766;28;81141;-71
2021/07/21 15:14:27;;;;;;;9.40;5.00;;;26.30;54.20;;;;;;6168030;28;80844;-69
2021/07/21 15:17:28;;;;;;;7.68;5.43;;;26.30;54.20;;;;;;6167964;28;80823;-68
2021/07/21 15:20:29;;;;;;;10.23;5.53;;;26.30;54.10;;;;;;6170499;28;80341;-68
2021/07/21 15:23:29;;;;;;;7.68;5.45;;;26.30;53.70;;;;;;6167729;28;80608;-69
2021/07/21 15:26:30;;;;;;;11.75;6.10;;;26.30;53.40;;;;;;6168655;28;81553;-68
2021/07/21 15:29:32;;;;;;;12.48;5.18;;;26.40;53.30;;;;;;6167394;28;80691;-69
2021/07/21 15:32:33;;;;;;;8.32;5.45;;;26.40;53.60;;;;;;6165134;28;80717;-68
2021/07/21 15:35:33;;;;;;;9.77;6.50;;;26.40;53.40;;;;;;6168444;28;81421;-69
2021/07/21 15:38:33;;;;;;;12.30;6.45;;;26.40;53.40;;;;;;6166619;28;80414;-69
2021/07/21 15:41:35;;;;;;;10.48;5.25;;;26.40;53.50;;;;;;6171217;28;81613;-70
2021/07/21 15:44:35;;;;;;;12.10;5.55;;;26.30;53.50;;;;;;6178839;28;80990;-71
2021/07/21 15:47:36;;;;;;;11.77;5.38;;;26.30;53.30;;;;;;6173879;28;80691;-69
2021/07/21 15:50:36;;;;;;;18.95;5.57;;;26.40;52.50;;;;;;6179079;28;81087;-70
2021/07/21 15:53:37;;;;;;;9.38;5.18;;;26.30;53.10;;;;;;6181920;28;80814;-69